Terminal Aerodrome Forecast
Issued by NWS Twin Cities, MN

Home | Current Version | Previous Version | Text Only | Print | Product List | Glossary On
Versions: 1 2 3 4 5 6 7 8 9 10 11 12 13 14
000
FTUS43 KMPX 031956 AAA
TAFSTC
TAF AMD
KSTC 031956Z 0320/0418 VRB04KT 5SM -SHRA BR SCT020 OVC050
     FM032300 29006KT P6SM BKN020 OVC050
     FM040500 30004KT 5SM BR OVC020
     FM040800 35003KT 3SM BR OVC007
     FM041600 35004KT P6SM OVC015=

USA.gov is the U.S. government's official web portal to all federal, state and local government web resources and services.